Time;durP1;ratioP1;P1;durP2;ratioP2;P2;SDS_P1;SDS_P2;PMS_P1;PMS_P2;Temp;Humidity;BMP_temperature;BMP_pressure;BME280_temperature;BME280_humidity;BME280_pressure;Samples;Min_cycle;Max_cycle;Signal;HPM_P1;HPM_P2
2022/01/09 00:01:55;;;;;;;14.02;13.02;;;;;;;;;;7337448;19;153697;-15
2022/01/09 00:04:26;;;;;;;14.20;13.00;;;;;;;;;;7332807;19;161983;-14
2022/01/09 00:06:57;;;;;;;14.10;12.68;;;;;;;;;;7333084;19;162593;-13
2022/01/09 00:09:28;;;;;;;13.20;12.25;;;;;;;;;;7336192;19;153910;-14
2022/01/09 00:11:59;;;;;;;13.15;12.15;;;;;;;;;;7336470;19;153749;-13
2022/01/09 00:14:33;;;;;;;12.32;11.40;;;;;;;;;;7333532;19;162177;-14
2022/01/09 00:17:05;;;;;;;13.77;12.68;;;;;;;;;;7334320;19;162343;-13
2022/01/09 00:19:37;;;;;;;11.63;10.73;;;;;;;;;;7335827;19;154148;-15
2022/01/09 00:22:08;;;;;;;13.10;12.10;;;;;;;;;;7334972;19;153894;-13
2022/01/09 00:24:39;;;;;;;11.88;11.00;;;;;;;;;;7332974;19;161937;-14
2022/01/09 00:27:11;;;;;;;9.70;9.00;;;;;;;;;;7332484;19;162399;-14
2022/01/09 00:29:45;;;;;;;10.15;9.35;;;;;;;;;;7329998;19;154082;-14
2022/01/09 00:32:16;;;;;;;9.50;8.88;;;;;;;;;;7330719;19;153708;-15
2022/01/09 00:34:47;;;;;;;10.68;9.82;;;;;;;;;;7327694;19;161655;-14
2022/01/09 00:37:18;;;;;;;10.43;9.55;;;;;;;;;;7332478;19;162676;-14
2022/01/09 00:39:51;;;;;;;10.63;9.82;;;;;;;;;;7334926;19;154116;-14
2022/01/09 00:42:23;;;;;;;9.90;9.18;;;;;;;;;;7335326;19;153720;-14
2022/01/09 00:44:57;;;;;;;9.82;9.07;;;;;;;;;;7331174;19;161985;-14
2022/01/09 00:47:28;;;;;;;10.20;9.40;;;;;;;;;;7332806;19;162494;-14
2022/01/09 00:50:00;;;;;;;9.18;8.48;;;;;;;;;;7335470;19;154017;-14
2022/01/09 00:52:31;;;;;;;9.70;8.95;;;;;;;;;;7335730;19;153800;-14
2022/01/09 00:55:02;;;;;;;9.40;8.70;;;;;;;;;;7331336;19;162128;-14
2022/01/09 00:57:34;;;;;;;9.20;8.50;;;;;;;;;;7333829;19;162352;-14
2022/01/09 01:00:10;;;;;;;8.75;8.05;;;;;;;;;;7335067;19;154036;-14
2022/01/09 01:02:42;;;;;;;9.05;8.45;;;;;;;;;;7335752;19;153619;-14
2022/01/09 01:05:14;;;;;;;8.65;7.97;;;;;;;;;;7332869;19;161781;-17
2022/01/09 01:07:46;;;;;;;8.57;7.88;;;;;;;;;;7332248;19;162543;-15
2022/01/09 01:10:17;;;;;;;8.63;8.02;;;;;;;;;;7334901;19;154162;-15
2022/01/09 01:12:49;;;;;;;8.07;7.50;;;;;;;;;;7335765;19;154684;-13
2022/01/09 01:15:23;;;;;;;8.07;7.47;;;;;;;;;;7332602;19;162373;-13
2022/01/09 01:17:54;;;;;;;8.57;7.95;;;;;;;;;;7333539;19;162708;-32
2022/01/09 01:20:27;;;;;;;8.32;7.75;;;;;;;;;;7334869;19;154062;-19
2022/01/09 09:19:31;;;;;;;2.10;2.00;;;;;;;;;;7371543;19;132538;-15
2022/01/09 09:22:02;;;;;;;1.70;1.60;;;;;;;;;;7366647;19;153723;-16
2022/01/09 09:24:35;;;;;;;1.85;1.20;;;;;;;;;;7367510;19;162490;-16
2022/01/09 09:27:07;;;;;;;1.13;1.13;;;;;;;;;;7367685;19;162535;-15
2022/01/09 09:29:38;;;;;;;1.65;1.55;;;;;;;;;;7367905;19;153880;-15
2022/01/09 09:32:10;;;;;;;1.98;1.88;;;;;;;;;;7365637;19;153523;-15
2022/01/09 09:34:43;;;;;;;1.83;1.73;;;;;;;;;;7366801;19;161838;-14
2022/01/09 09:37:15;;;;;;;1.50;1.40;;;;;;;;;;7367175;19;162509;-16
2022/01/09 09:39:46;;;;;;;1.60;1.50;;;;;;;;;;7367709;19;153882;-15
2022/01/09 09:42:18;;;;;;;1.33;1.30;;;;;;;;;;7366819;19;153667;-15
2022/01/09 09:44:49;;;;;;;1.20;1.20;;;;;;;;;;7365902;19;161922;-15
2022/01/09 09:47:22;;;;;;;1.20;1.20;;;;;;;;;;7366388;19;162348;-15
2022/01/09 09:49:55;;;;;;;1.65;1.00;;;;;;;;;;7366688;19;154134;-15
2022/01/09 09:52:27;;;;;;;0.80;0.80;;;;;;;;;;7365733;19;153629;-14
2022/01/09 09:54:59;;;;;;;0.90;0.90;;;;;;;;;;7366189;19;162069;-15
2022/01/09 09:57:31;;;;;;;0.70;0.70;;;;;;;;;;7365772;19;162629;-15
2022/01/09 10:00:08;;;;;;;0.55;0.55;;;;;;;;;;7366338;19;154016;-16
2022/01/09 10:02:45;;;;;;;1.63;0.80;;;;;;;;;;7366908;19;153715;-14
2022/01/09 10:05:21;;;;;;;0.60;0.60;;;;;;;;;;7364604;19;161931;-14
2022/01/09 10:07:54;;;;;;;0.90;0.90;;;;;;;;;;7364575;19;162807;-15
2022/01/09 10:10:33;;;;;;;0.60;0.60;;;;;;;;;;7366471;19;154085;-15
2022/01/09 10:13:10;;;;;;;0.80;0.80;;;;;;;;;;7364292;19;153992;-14
2022/01/09 10:15:52;;;;;;;1.08;0.90;;;;;;;;;;7365024;19;161938;-15
2022/01/09 10:18:42;;;;;;;0.82;0.82;;;;;;;;;;7360601;19;162589;-15
2022/01/09 10:21:19;;;;;;;0.70;0.70;;;;;;;;;;7335571;19;153956;-15
2022/01/09 10:24:01;;;;;;;0.60;0.60;;;;;;;;;;7336430;19;153561;-15
2022/01/09 10:26:34;;;;;;;0.80;0.80;;;;;;;;;;7337247;19;161802;-15
2022/01/09 10:29:06;;;;;;;;;;;;;;;;;;7333398;19;162718;-15
2022/01/09 10:31:43;;;;;;;0.80;0.80;;;;;;;;;;7335911;19;154122;-14
2022/01/09 10:34:16;;;;;;;0.70;0.70;;;;;;;;;;7337180;19;153813;-15
2022/01/09 10:36:52;;;;;;;1.55;0.70;;;;;;;;;;7337045;19;161903;-15
2022/01/09 10:39:34;;;;;;;0.82;0.82;;;;;;;;;;7334673;19;162384;-16
2022/01/09 10:42:07;;;;;;;0.60;0.60;;;;;;;;;;7337230;19;154245;-15
2022/01/09 10:44:43;;;;;;;0.75;0.75;;;;;;;;;;7336454;19;153558;-15
2022/01/09 10:47:16;;;;;;;0.70;0.70;;;;;;;;;;7335742;19;161832;-15
2022/01/09 10:49:47;;;;;;;;;;;;;;;;;;7334563;19;162676;-15
2022/01/09 10:52:24;;;;;;;0.75;0.75;;;;;;;;;;7336936;19;154098;-16
2022/01/09 10:54:58;;;;;;;0.80;0.80;;;;;;;;;;7335955;19;153864;-15
2022/01/09 10:57:32;;;;;;;1.58;1.10;;;;;;;;;;7335766;19;161842;-16
2022/01/09 11:00:08;;;;;;;0.80;0.80;;;;;;;;;;7333244;19;162470;-16
2022/01/09 11:02:40;;;;;;;0.90;0.90;;;;;;;;;;7335530;19;153977;-16
2022/01/09 11:05:11;;;;;;;0.82;0.82;;;;;;;;;;7335665;19;153554;-15
2022/01/09 11:07:49;;;;;;;0.73;0.73;;;;;;;;;;7336503;19;161810;-14
2022/01/09 11:10:21;;;;;;;0.63;0.63;;;;;;;;;;7335292;19;163192;-14
2022/01/09 11:12:58;;;;;;;0.83;0.83;;;;;;;;;;7335498;19;154179;-14
2022/01/09 11:15:40;;;;;;;1.00;0.80;;;;;;;;;;7335706;19;153792;-14
2022/01/09 11:18:11;;;;;;;1.52;1.02;;;;;;;;;;7334553;19;161815;-15
2022/01/09 11:20:43;;;;;;;4.10;3.70;;;;;;;;;;7333198;19;162765;-16
2022/01/09 11:23:18;;;;;;;3.15;2.83;;;;;;;;;;7334476;19;153979;-16
2022/01/09 11:25:51;;;;;;;3.13;2.83;;;;;;;;;;7334511;19;153570;-15
2022/01/09 11:28:27;;;;;;;1.00;1.00;;;;;;;;;;7331575;19;162511;-15
2022/01/09 11:31:04;;;;;;;1.13;1.13;;;;;;;;;;7329247;19;162435;-19
2022/01/09 11:33:50;;;;;;;1.60;1.50;;;;;;;;;;7333967;19;153975;-16
2022/01/09 11:36:30;;;;;;;1.40;1.30;;;;;;;;;;7334357;19;153597;-16
2022/01/09 11:39:12;;;;;;;1.70;1.60;;;;;;;;;;7334490;19;161746;-15
2022/01/09 11:42:06;;;;;;;1.60;1.50;;;;;;;;;;7334651;19;162675;-16
2022/01/09 11:44:47;;;;;;;1.75;1.65;;;;;;;;;;7332744;19;154028;-16
2022/01/09 11:47:18;;;;;;;1.60;1.50;;;;;;;;;;7333966;19;153535;-16
2022/01/09 11:50:09;;;;;;;2.33;2.15;;;;;;;;;;7331840;19;162393;-16
2022/01/09 11:53:01;;;;;;;1.60;1.50;;;;;;;;;;7332321;19;162633;-16
2022/01/09 11:55:44;;;;;;;1.65;1.55;;;;;;;;;;7334018;19;153932;-16
2022/01/09 11:58:19;;;;;;;;;;;;;;;;;;7334965;19;153830;-16
2022/01/09 12:00:52;;;;;;;4.35;3.80;;;;;;;;;;7335632;19;163682;-15
2022/01/09 12:03:38;;;;;;;;;;;;;;;;;;7331412;19;162680;-15
2022/01/09 12:06:13;;;;;;;3.05;2.85;;;;;;;;;;7331358;19;154112;-15
2022/01/09 12:09:10;;;;;;;3.83;2.55;;;;;;;;;;7331018;19;153641;-16
2022/01/09 12:12:11;;;;;;;2.90;2.70;;;;;;;;;;7330574;19;162033;-16
2022/01/09 12:15:01;;;;;;;5.47;4.97;;;;;;;;;;7329455;19;163049;-15
2022/01/09 12:17:43;;;;;;;6.80;5.53;;;;;;;;;;7330375;19;154019;-16
2022/01/09 12:20:28;;;;;;;4.90;4.40;;;;;;;;;;7330444;19;153857;-16
2022/01/09 12:23:04;;;;;;;5.38;4.50;;;;;;;;;;7334446;19;161797;-16
2022/01/09 12:25:53;;;;;;;5.25;4.55;;;;;;;;;;7330414;19;162440;-15
2022/01/09 12:28:43;;;;;;;5.40;4.88;;;;;;;;;;7331589;19;153967;-15
2022/01/09 12:31:26;;;;;;;4.93;4.43;;;;;;;;;;7328169;19;153844;-15
2022/01/09 12:34:01;;;;;;;4.22;3.83;;;;;;;;;;7326118;19;163437;-16
2022/01/09 12:36:35;;;;;;;4.35;3.60;;;;;;;;;;7331464;19;164202;-15
2022/01/09 12:39:08;;;;;;;4.95;4.55;;;;;;;;;;7331087;19;154110;-16
2022/01/09 12:41:42;;;;;;;4.03;3.70;;;;;;;;;;7329143;19;153563;-16
2022/01/09 12:44:16;;;;;;;4.40;3.90;;;;;;;;;;7327683;19;161832;-16
2022/01/09 12:46:48;;;;;;;4.05;3.50;;;;;;;;;;7333496;19;162542;-15
2022/01/09 12:49:22;;;;;;;4.33;3.90;;;;;;;;;;7328257;19;154177;-16
2022/01/09 12:52:00;;;;;;;4.57;3.75;;;;;;;;;;7331730;19;155111;-15
2022/01/09 12:54:31;;;;;;;4.38;3.97;;;;;;;;;;7331118;19;161834;-15
2022/01/09 12:57:04;;;;;;;3.50;3.22;;;;;;;;;;7328597;19;162351;-15
2022/01/09 12:59:38;;;;;;;7.45;6.75;;;;;;;;;;7333211;19;155540;-15
2022/01/09 13:02:12;;;;;;;5.45;4.95;;;;;;;;;;7333193;19;153552;-15
2022/01/09 13:04:44;;;;;;;5.80;5.30;;;;;;;;;;7326726;19;162082;-16
2022/01/09 13:07:17;;;;;;;5.22;4.72;;;;;;;;;;7329791;19;162409;-15
2022/01/09 13:09:48;;;;;;;;;;;;;;;;;;7329815;19;154283;-15
2022/01/09 13:12:22;;;;;;;5.03;4.53;;;;;;;;;;7331261;19;153257;-14
2022/01/09 13:14:56;;;;;;;5.00;4.50;;;;;;;;;;7328021;19;162005;-15
2022/01/09 13:17:27;;;;;;;4.88;4.47;;;;;;;;;;7330381;19;162396;-15
2022/01/09 13:20:01;;;;;;;4.50;4.10;;;;;;;;;;7328930;19;153855;-14
2022/01/09 13:22:33;;;;;;;4.43;4.00;;;;;;;;;;7323644;19;153512;-15
2022/01/09 13:25:08;;;;;;;4.78;4.38;;;;;;;;;;7330641;19;162089;-15
2022/01/09 13:27:39;;;;;;;4.65;4.25;;;;;;;;;;7327040;19;162481;-15
2022/01/09 13:30:14;;;;;;;4.60;4.20;;;;;;;;;;7320560;19;154139;-15
2022/01/09 13:32:45;;;;;;;4.60;4.20;;;;;;;;;;7331555;19;153553;-15
2022/01/09 13:35:17;;;;;;;4.47;4.10;;;;;;;;;;7330796;19;161757;-16
2022/01/09 13:37:48;;;;;;;4.63;4.22;;;;;;;;;;7326016;19;162357;-15
2022/01/09 13:40:21;;;;;;;4.88;4.45;;;;;;;;;;7329601;19;154073;-14
2022/01/09 13:42:53;;;;;;;4.10;3.70;;;;;;;;;;7329212;19;153803;-15
2022/01/09 13:45:27;;;;;;;4.13;3.72;;;;;;;;;;7326696;19;161798;-15
2022/01/09 13:47:59;;;;;;;3.95;3.60;;;;;;;;;;7321209;19;162471;-15
2022/01/09 13:50:33;;;;;;;4.13;3.83;;;;;;;;;;7327039;19;154294;-15
2022/01/09 13:53:10;;;;;;;3.83;3.53;;;;;;;;;;7330056;19;154176;-15
2022/01/09 13:55:43;;;;;;;4.22;3.83;;;;;;;;;;7335701;19;161918;-15
2022/01/09 13:58:21;;;;;;;4.40;4.05;;;;;;;;;;7337479;19;162470;-16
2022/01/09 14:00:56;;;;;;;4.35;3.95;;;;;;;;;;7336922;19;153966;-16
2022/01/09 14:03:29;;;;;;;4.55;4.15;;;;;;;;;;7336559;19;153649;-16
2022/01/09 14:06:00;;;;;;;4.22;3.90;;;;;;;;;;7336737;19;162547;-15
2022/01/09 14:08:39;;;;;;;4.40;4.00;;;;;;;;;;7336323;19;162533;-15
2022/01/09 14:11:11;;;;;;;4.05;3.75;;;;;;;;;;7334945;19;153932;-15
2022/01/09 14:13:43;;;;;;;4.45;4.07;;;;;;;;;;7335656;19;153507;-15
2022/01/09 14:16:17;;;;;;;3.80;3.50;;;;;;;;;;7336481;19;161768;-15
2022/01/09 14:18:57;;;;;;;3.83;3.53;;;;;;;;;;7332345;19;162156;-14
2022/01/09 14:21:28;;;;;;;3.70;3.50;;;;;;;;;;7336599;19;154059;-15
2022/01/09 14:24:07;;;;;;;3.72;3.42;;;;;;;;;;7335919;19;153699;-14
2022/01/09 14:26:39;;;;;;;3.80;3.50;;;;;;;;;;7335517;19;162314;-15
2022/01/09 14:29:10;;;;;;;3.75;3.45;;;;;;;;;;7335912;19;162651;-14
2022/01/09 14:31:44;;;;;;;4.05;3.75;;;;;;;;;;7332828;19;154177;-15
2022/01/09 14:34:16;;;;;;;4.20;3.55;;;;;;;;;;7331483;19;153603;-16
2022/01/09 14:36:48;;;;;;;3.88;3.55;;;;;;;;;;7335520;19;161644;-24
2022/01/09 14:39:20;;;;;;;3.80;3.50;;;;;;;;;;7331055;19;162403;-16
2022/01/09 14:41:53;;;;;;;3.70;3.40;;;;;;;;;;7334741;19;154508;-15
2022/01/09 14:44:24;;;;;;;;;;;;;;;;;;7337493;19;154029;-15
2022/01/09 14:46:57;;;;;;;2.67;2.47;;;;;;;;;;7334330;19;162175;-15
2022/01/09 14:49:29;;;;;;;3.60;3.30;;;;;;;;;;7335161;19;162473;-15
2022/01/09 14:52:02;;;;;;;3.15;2.95;;;;;;;;;;7333949;19;154079;-15
2022/01/09 14:54:35;;;;;;;3.37;3.17;;;;;;;;;;7332537;19;153680;-15
2022/01/09 14:57:07;;;;;;;3.40;3.10;;;;;;;;;;7336646;19;162740;-15
2022/01/09 14:59:38;;;;;;;3.35;3.10;;;;;;;;;;7334203;19;162475;-15
2022/01/09 15:02:12;;;;;;;3.05;2.75;;;;;;;;;;7335249;19;154213;-15
2022/01/09 15:04:46;;;;;;;3.05;2.85;;;;;;;;;;7335295;19;153544;-14
2022/01/09 15:07:20;;;;;;;3.38;3.17;;;;;;;;;;7334975;19;161967;-14
2022/01/09 15:09:51;;;;;;;3.50;3.20;;;;;;;;;;7334998;19;162388;-14
2022/01/09 15:12:23;;;;;;;3.28;2.97;;;;;;;;;;7332838;19;154078;-15
2022/01/09 15:14:55;;;;;;;3.25;3.05;;;;;;;;;;7335780;19;153508;-14
2022/01/09 15:17:29;;;;;;;3.38;3.13;;;;;;;;;;7334428;19;161970;-14
2022/01/09 15:20:02;;;;;;;2.83;2.63;;;;;;;;;;7335432;19;162597;-15
2022/01/09 15:22:34;;;;;;;2.85;2.65;;;;;;;;;;7335059;19;154099;-14
2022/01/09 15:25:06;;;;;;;2.90;2.70;;;;;;;;;;7334155;19;153516;-14
2022/01/09 15:27:37;;;;;;;3.03;2.83;;;;;;;;;;7329467;19;161813;-14
2022/01/09 15:30:10;;;;;;;2.85;2.63;;;;;;;;;;7333859;19;162579;-14
2022/01/09 15:32:45;;;;;;;2.90;2.70;;;;;;;;;;7333025;19;153955;-14
2022/01/09 15:35:18;;;;;;;2.50;2.38;;;;;;;;;;7333704;19;153505;-14
2022/01/09 15:37:50;;;;;;;3.08;2.88;;;;;;;;;;7335161;19;161967;-15
2022/01/09 15:40:21;;;;;;;3.10;2.85;;;;;;;;;;7334590;19;162606;-14
2022/01/09 15:42:52;;;;;;;3.67;2.67;;;;;;;;;;7332551;19;153969;-14
2022/01/09 15:45:24;;;;;;;2.60;2.40;;;;;;;;;;7333297;19;153739;-15
2022/01/09 15:47:57;;;;;;;2.47;2.38;;;;;;;;;;7329536;19;161809;-15
2022/01/09 15:50:29;;;;;;;3.60;3.30;;;;;;;;;;7334674;19;162508;-15
2022/01/09 15:53:01;;;;;;;2.58;2.38;;;;;;;;;;7330238;19;154179;-15
2022/01/09 15:55:32;;;;;;;2.75;2.50;;;;;;;;;;7332026;19;153702;-14
2022/01/09 15:58:05;;;;;;;2.90;2.70;;;;;;;;;;7333204;19;161959;-16
2022/01/09 16:00:36;;;;;;;2.58;2.38;;;;;;;;;;7324037;19;162537;-16
2022/01/09 16:03:12;;;;;;;2.85;2.60;;;;;;;;;;7333850;19;154101;-15
2022/01/09 16:05:43;;;;;;;2.95;2.75;;;;;;;;;;7334294;19;153544;-14
2022/01/09 16:08:15;;;;;;;2.85;2.65;;;;;;;;;;7333786;19;162024;-14
2022/01/09 16:10:46;;;;;;;2.95;2.65;;;;;;;;;;7332102;19;162189;-16
2022/01/09 16:13:18;;;;;;;2.60;2.40;;;;;;;;;;7331902;19;154060;-15
2022/01/09 16:15:49;;;;;;;2.83;2.45;;;;;;;;;;7334107;19;153558;-16
2022/01/09 16:18:23;;;;;;;2.88;2.67;;;;;;;;;;7330472;19;161858;-15
2022/01/09 16:20:54;;;;;;;2.50;2.30;;;;;;;;;;7327456;19;162857;-16
2022/01/09 16:23:25;;;;;;;2.80;2.60;;;;;;;;;;7330724;19;154006;-15
2022/01/09 16:25:58;;;;;;;2.83;2.28;;;;;;;;;;7323968;19;153607;-14
2022/01/09 16:28:29;;;;;;;;;;;;;;;;;;7331279;19;162001;-15
2022/01/09 16:31:02;;;;;;;1.80;1.70;;;;;;;;;;7330724;19;162736;-15
2022/01/09 16:33:37;;;;;;;2.53;1.98;;;;;;;;;;7323142;19;154045;-15
2022/01/09 16:36:10;;;;;;;2.45;2.25;;;;;;;;;;7324007;19;153797;-15
2022/01/09 16:38:43;;;;;;;2.25;2.00;;;;;;;;;;7325049;19;162049;-15
2022/01/09 16:41:19;;;;;;;2.55;2.38;;;;;;;;;;7323873;19;162424;-15
2022/01/09 16:43:53;;;;;;;2.00;1.90;;;;;;;;;;7326381;19;153996;-15
2022/01/09 16:46:25;;;;;;;2.05;1.95;;;;;;;;;;7323138;19;153584;-14
2022/01/09 16:49:01;;;;;;;2.00;1.75;;;;;;;;;;7326422;19;161852;-15
2022/01/09 16:51:35;;;;;;;2.30;2.10;;;;;;;;;;7328850;19;164140;-15
2022/01/09 16:54:09;;;;;;;1.83;1.73;;;;;;;;;;7324786;19;153980;-14
2022/01/09 16:56:40;;;;;;;2.00;1.90;;;;;;;;;;7332040;19;153516;-15
2022/01/09 16:59:12;;;;;;;2.97;1.73;;;;;;;;;;7330917;19;161771;-15
2022/01/09 17:01:43;;;;;;;1.52;1.50;;;;;;;;;;7319837;19;162468;-15
2022/01/09 17:04:17;;;;;;;1.70;1.60;;;;;;;;;;7329290;19;154203;-15
2022/01/09 17:06:49;;;;;;;2.45;1.90;;;;;;;;;;7328265;19;153678;-15
2022/01/09 17:09:20;;;;;;;1.60;1.50;;;;;;;;;;7331541;19;162077;-14
2022/01/09 17:11:51;;;;;;;1.70;1.60;;;;;;;;;;7326652;19;162533;-15
2022/01/09 17:14:24;;;;;;;1.83;1.73;;;;;;;;;;7325282;19;154060;-14
2022/01/09 17:16:55;;;;;;;1.58;1.48;;;;;;;;;;7330800;19;153532;-13
2022/01/09 17:19:36;;;;;;;1.65;1.55;;;;;;;;;;7328445;19;161774;-14
2022/01/09 17:22:07;;;;;;;1.50;1.48;;;;;;;;;;7328466;19;162540;-15
2022/01/09 17:24:39;;;;;;;1.50;1.50;;;;;;;;;;7329328;19;153770;-15
2022/01/09 17:27:10;;;;;;;1.25;1.25;;;;;;;;;;7329212;19;153536;-16
2022/01/09 17:29:42;;;;;;;1.20;1.20;;;;;;;;;;7332117;19;162229;-14
2022/01/09 17:32:13;;;;;;;3.75;1.50;;;;;;;;;;7335692;19;162358;-15
2022/01/09 17:34:47;;;;;;;1.50;1.40;;;;;;;;;;7333831;19;154060;-14
2022/01/09 17:37:19;;;;;;;1.70;1.60;;;;;;;;;;7336280;19;153512;-15
2022/01/09 17:39:50;;;;;;;1.33;1.33;;;;;;;;;;7335361;19;161973;-16
2022/01/09 17:42:22;;;;;;;1.30;1.30;;;;;;;;;;7334481;19;162354;-15
2022/01/09 17:44:55;;;;;;;3.30;2.03;;;;;;;;;;7335473;19;153976;-14
2022/01/09 17:47:27;;;;;;;1.77;1.58;;;;;;;;;;7335261;19;153539;-15
2022/01/09 17:50:01;;;;;;;1.50;1.40;;;;;;;;;;7334942;19;161852;-14
2022/01/09 17:52:32;;;;;;;1.45;1.27;;;;;;;;;;7334968;19;162271;-15
2022/01/09 17:55:03;;;;;;;1.40;1.40;;;;;;;;;;7334112;19;154471;-15
2022/01/09 17:57:34;;;;;;;1.50;1.50;;;;;;;;;;7334139;19;153784;-15
2022/01/09 18:00:07;;;;;;;1.55;1.20;;;;;;;;;;7330839;19;161990;-15
2022/01/09 18:02:40;;;;;;;1.40;1.30;;;;;;;;;;7333638;19;162472;-15
2022/01/09 18:05:19;;;;;;;1.75;1.30;;;;;;;;;;7334214;19;154029;-16
2022/01/09 18:07:52;;;;;;;1.52;1.23;;;;;;;;;;7330515;19;153703;-14
2022/01/09 18:10:23;;;;;;;1.20;1.20;;;;;;;;;;7336932;19;161866;-15
2022/01/09 18:12:54;;;;;;;1.30;1.23;;;;;;;;;;7335165;19;162575;-15
2022/01/09 18:15:26;;;;;;;1.38;1.27;;;;;;;;;;7336884;19;154088;-14
2022/01/09 18:17:57;;;;;;;1.50;1.40;;;;;;;;;;7337689;19;153790;-15
2022/01/09 18:20:31;;;;;;;1.65;1.55;;;;;;;;;;7334383;19;161870;-15
2022/01/09 18:23:03;;;;;;;1.40;1.30;;;;;;;;;;7333896;19;162506;-15
2022/01/09 18:25:37;;;;;;;1.20;1.10;;;;;;;;;;7334310;19;154111;-14
2022/01/09 18:28:08;;;;;;;1.45;1.17;;;;;;;;;;7334037;19;153494;-16
2022/01/09 18:30:40;;;;;;;1.10;1.10;;;;;;;;;;7335367;19;163537;-15
2022/01/09 18:33:11;;;;;;;1.33;1.23;;;;;;;;;;7337229;19;162514;-16
2022/01/09 18:35:45;;;;;;;1.10;1.10;;;;;;;;;;7334162;19;153973;-16
2022/01/09 18:38:16;;;;;;;1.33;1.23;;;;;;;;;;7333869;19;153459;-15
2022/01/09 18:40:49;;;;;;;1.50;1.40;;;;;;;;;;7332642;19;162001;-15
2022/01/09 18:43:20;;;;;;;1.17;1.17;;;;;;;;;;7332923;19;162379;-15
2022/01/09 18:45:51;;;;;;;1.33;1.23;;;;;;;;;;7338357;19;154042;-15
2022/01/09 18:48:24;;;;;;;1.10;1.10;;;;;;;;;;7337664;19;153432;-15
2022/01/09 18:50:59;;;;;;;1.00;1.00;;;;;;;;;;7332041;19;161780;-15
2022/01/09 18:53:30;;;;;;;0.90;0.90;;;;;;;;;;7335378;19;162399;-15
2022/01/09 18:56:02;;;;;;;1.33;1.23;;;;;;;;;;7337518;19;154271;-15
2022/01/09 18:58:33;;;;;;;1.17;1.10;;;;;;;;;;7333351;19;153772;-15
2022/01/09 19:01:05;;;;;;;1.20;1.20;;;;;;;;;;7334692;19;161987;-15
2022/01/09 19:03:36;;;;;;;1.27;1.27;;;;;;;;;;7332869;19;162330;-16
2022/01/09 19:06:10;;;;;;;1.30;1.20;;;;;;;;;;7332980;19;154032;-15
2022/01/09 19:08:41;;;;;;;1.38;1.30;;;;;;;;;;7331777;19;153552;-17
2022/01/09 19:11:17;;;;;;;0.98;0.98;;;;;;;;;;7332703;19;161839;-17
2022/01/09 19:13:49;;;;;;;1.20;1.20;;;;;;;;;;7332322;19;162347;-16
2022/01/09 19:16:23;;;;;;;1.10;1.00;;;;;;;;;;7332859;19;154018;-15
2022/01/09 19:18:55;;;;;;;1.90;1.27;;;;;;;;;;7330720;19;153636;-14
2022/01/09 19:21:32;;;;;;;1.20;1.15;;;;;;;;;;7332273;19;161845;-15
2022/01/09 19:24:04;;;;;;;1.38;1.27;;;;;;;;;;7335621;19;162181;-15
2022/01/09 19:26:35;;;;;;;1.23;1.23;;;;;;;;;;7335434;19;154073;-15
2022/01/09 19:29:07;;;;;;;1.25;1.00;;;;;;;;;;7335992;19;153566;-15
2022/01/09 19:31:38;;;;;;;1.10;1.10;;;;;;;;;;7333594;19;161952;-16
2022/01/09 19:34:09;;;;;;;1.63;1.30;;;;;;;;;;7333253;19;162480;-16
2022/01/09 19:36:43;;;;;;;1.50;1.40;;;;;;;;;;7336011;19;154000;-15
2022/01/09 19:39:15;;;;;;;1.20;1.10;;;;;;;;;;7333212;19;153651;-15
2022/01/09 19:41:46;;;;;;;1.50;1.40;;;;;;;;;;7332586;19;161795;-14
2022/01/09 19:44:20;;;;;;;1.25;1.25;;;;;;;;;;7335710;19;162422;-15
2022/01/09 19:46:53;;;;;;;1.10;1.10;;;;;;;;;;7335069;19;154070;-15
2022/01/09 19:49:26;;;;;;;1.42;1.40;;;;;;;;;;7335231;19;153604;-14
2022/01/09 19:52:02;;;;;;;;;;;;;;;;;;7332503;19;162059;-15
2022/01/09 19:54:35;;;;;;;1.50;1.40;;;;;;;;;;7330740;19;162861;-19
2022/01/09 19:57:10;;;;;;;1.65;1.40;;;;;;;;;;7331656;19;153664;-15
2022/01/09 19:59:47;;;;;;;1.20;1.10;;;;;;;;;;7331547;19;153708;-14
2022/01/09 20:02:20;;;;;;;1.40;1.30;;;;;;;;;;7330721;19;161923;-15
2022/01/09 20:04:52;;;;;;;1.35;1.25;;;;;;;;;;7331297;19;162652;-15
2022/01/09 20:07:27;;;;;;;1.38;1.27;;;;;;;;;;7331561;19;154039;-15
2022/01/09 20:09:58;;;;;;;1.30;1.20;;;;;;;;;;7331486;19;153515;-15
2022/01/09 20:12:30;;;;;;;1.38;1.30;;;;;;;;;;7331257;19;161848;-16
2022/01/09 20:15:02;;;;;;;1.05;1.05;;;;;;;;;;7330155;19;162389;-16
2022/01/09 20:17:33;;;;;;;1.57;1.47;;;;;;;;;;7330344;19;154017;-15
2022/01/09 20:20:12;;;;;;;1.50;1.40;;;;;;;;;;7331018;19;153509;-15
2022/01/09 20:22:46;;;;;;;2.10;1.40;;;;;;;;;;7333796;19;162000;-15
2022/01/09 20:25:24;;;;;;;1.00;1.00;;;;;;;;;;7333867;19;162378;-17
2022/01/09 20:27:59;;;;;;;1.52;1.42;;;;;;;;;;7334008;19;154295;-15
2022/01/09 20:30:30;;;;;;;1.20;1.10;;;;;;;;;;7333976;19;153543;-15
2022/01/09 20:33:01;;;;;;;1.33;1.23;;;;;;;;;;7332804;19;161943;-16
2022/01/09 20:35:33;;;;;;;1.20;1.05;;;;;;;;;;7332839;19;162398;-16
2022/01/09 20:38:08;;;;;;;1.20;1.20;;;;;;;;;;7334128;19;154014;-15
2022/01/09 20:40:39;;;;;;;1.38;1.30;;;;;;;;;;7334178;19;153698;-15
2022/01/09 20:43:10;;;;;;;1.35;1.27;;;;;;;;;;7332234;19;161870;-15
2022/01/09 20:45:43;;;;;;;1.60;1.40;;;;;;;;;;7333138;19;162510;-16
2022/01/09 20:48:14;;;;;;;1.30;1.20;;;;;;;;;;7334126;19;154220;-15
2022/01/09 20:50:45;;;;;;;0.93;0.93;;;;;;;;;;7332528;19;153563;-16
2022/01/09 20:53:19;;;;;;;1.85;1.33;;;;;;;;;;7331112;19;161806;-16
2022/01/09 20:55:50;;;;;;;1.42;1.17;;;;;;;;;;7330872;19;162522;-16
2022/01/09 20:58:22;;;;;;;1.00;1.00;;;;;;;;;;7332296;19;153990;-15
2022/01/09 21:00:53;;;;;;;1.30;1.20;;;;;;;;;;7332266;19;153573;-16
2022/01/09 21:03:25;;;;;;;1.00;1.00;;;;;;;;;;7331118;19;161588;-15
2022/01/09 21:05:57;;;;;;;1.40;1.30;;;;;;;;;;7332495;19;162368;-15
2022/01/09 21:08:32;;;;;;;1.00;1.00;;;;;;;;;;7333106;19;153930;-15
2022/01/09 21:11:05;;;;;;;1.30;1.20;;;;;;;;;;7331451;19;153554;-15
2022/01/09 21:13:37;;;;;;;1.00;0.90;;;;;;;;;;7332320;19;161835;-15
2022/01/09 21:16:08;;;;;;;1.73;1.00;;;;;;;;;;7331607;19;162332;-15
2022/01/09 21:18:40;;;;;;;1.33;1.23;;;;;;;;;;7330935;19;153957;-14
2022/01/09 21:21:11;;;;;;;1.40;1.20;;;;;;;;;;7332358;19;153484;-15
2022/01/09 21:23:45;;;;;;;1.02;1.02;;;;;;;;;;7328262;19;161826;-16
2022/01/09 21:26:17;;;;;;;1.10;1.10;;;;;;;;;;7331796;19;163514;-14
2022/01/09 21:28:48;;;;;;;1.13;1.13;;;;;;;;;;7332665;19;153981;-15
2022/01/09 21:31:20;;;;;;;0.82;0.80;;;;;;;;;;7332565;19;153920;-17
2022/01/09 21:33:51;;;;;;;1.20;1.10;;;;;;;;;;7331823;19;161759;-15
2022/01/09 21:36:23;;;;;;;1.00;1.00;;;;;;;;;;7330187;19;162626;-14
2022/01/09 21:39:11;;;;;;;1.55;1.20;;;;;;;;;;7332172;19;153997;-15
2022/01/09 21:41:42;;;;;;;1.55;1.20;;;;;;;;;;7332232;19;153536;-14
2022/01/09 21:44:13;;;;;;;0.90;0.90;;;;;;;;;;7331824;19;161811;-14
2022/01/09 21:46:45;;;;;;;0.80;0.80;;;;;;;;;;7331394;19;162650;-14
2022/01/09 21:49:16;;;;;;;1.13;1.10;;;;;;;;;;7332321;19;154026;-14
2022/01/09 21:51:47;;;;;;;1.20;1.08;;;;;;;;;;7330915;19;153543;-15
2022/01/09 21:54:21;;;;;;;0.90;0.90;;;;;;;;;;7330908;19;162061;-15
2022/01/09 21:56:54;;;;;;;1.13;1.02;;;;;;;;;;7329190;19;162361;-16
2022/01/09 21:59:25;;;;;;;0.98;0.98;;;;;;;;;;7330365;19;154239;-15
2022/01/09 22:01:57;;;;;;;0.88;0.88;;;;;;;;;;7330535;19;153613;-15
2022/01/09 22:04:32;;;;;;;1.00;1.00;;;;;;;;;;7331005;19;161846;-16
2022/01/09 22:07:03;;;;;;;1.08;1.05;;;;;;;;;;7330845;19;162725;-15
2022/01/09 22:09:37;;;;;;;1.40;1.10;;;;;;;;;;7330910;19;154320;-16
2022/01/09 22:12:09;;;;;;;1.00;1.00;;;;;;;;;;7331318;19;154846;-16
2022/01/09 22:14:41;;;;;;;1.07;1.00;;;;;;;;;;7329923;19;161766;-15
2022/01/09 22:17:13;;;;;;;1.17;1.15;;;;;;;;;;7334848;19;162456;-14
2022/01/09 22:19:44;;;;;;;1.63;1.20;;;;;;;;;;7338180;19;154541;-15
2022/01/09 22:22:18;;;;;;;1.15;1.10;;;;;;;;;;7338067;19;153503;-15
2022/01/09 22:24:53;;;;;;;1.10;1.10;;;;;;;;;;7337601;19;161803;-16
2022/01/09 22:27:25;;;;;;;1.08;1.05;;;;;;;;;;7336928;19;162445;-15
2022/01/09 22:29:57;;;;;;;1.25;1.17;;;;;;;;;;7335891;19;154279;-16
2022/01/09 22:32:30;;;;;;;1.00;1.00;;;;;;;;;;7336820;19;153471;-15
2022/01/09 22:35:02;;;;;;;1.23;1.23;;;;;;;;;;7332676;19;161845;-16
2022/01/09 22:37:33;;;;;;;1.25;1.15;;;;;;;;;;7331483;19;162697;-16
2022/01/09 22:40:09;;;;;;;1.08;1.08;;;;;;;;;;7337179;19;154036;-15
2022/01/09 22:42:54;;;;;;;0.93;0.93;;;;;;;;;;7337567;19;153553;-13
2022/01/09 22:45:29;;;;;;;0.90;0.90;;;;;;;;;;7336735;19;161890;-15
2022/01/09 22:48:02;;;;;;;0.88;0.88;;;;;;;;;;7334947;19;162542;-14
2022/01/09 22:50:33;;;;;;;1.00;1.00;;;;;;;;;;7337229;19;154022;-14
2022/01/09 22:53:06;;;;;;;1.02;0.93;;;;;;;;;;7336791;19;153587;-15
2022/01/09 22:55:40;;;;;;;1.10;1.10;;;;;;;;;;7336545;19;161879;-15
2022/01/09 22:58:11;;;;;;;3.10;0.90;;;;;;;;;;7334326;19;162384;-15
2022/01/09 23:00:44;;;;;;;1.20;1.10;;;;;;;;;;7336432;19;153956;-15
2022/01/09 23:03:18;;;;;;;0.90;0.90;;;;;;;;;;7336911;19;153445;-15
2022/01/09 23:05:51;;;;;;;0.90;0.90;;;;;;;;;;7336184;19;162030;-15